KBNL/BNL METAR and TAF weather

Enter ICAO airport designator
Station Type Date Time Source
KBNL METAR 2022/12/05 14:35 UTC NOAA

KBNL 051435Z AUTO 07008KT 10SM OVC018 12/08 A3018 RMK AO2


Station Type Date Time Source
KBNL Decoded METAR 2022/12/05 14:35 UTC NOAA

Station name not available
Dec 05, 2022 - 09:35 AM EST / 2022.12.05 1435 UTC
Wind: from the ENE (070 degrees) at 9 MPH (8 KT):0
Visibility: 10 mile(s):0
Sky conditions: overcast
Temperature: 53 F (12 C)
Dew Point: 46 F (8 C)
Relative Humidity: 76%
Pressure (altimeter): 30.18 in. Hg (1022 hPa)
ob: KBNL 051435Z AUTO 07008KT 10SM OVC018 12/08 A3018 RMK AO2
cycle: 14

Station Type Date Time Source
KBNL TAF UTC NOAA

Error!

Example: see airport list